createdAt,value
2018-06-18T00:01:08.444Z,100583.95
2018-06-18T00:03:41.883Z,100588.53
2018-06-18T00:06:10.222Z,100582.91
2018-06-18T00:08:38.512Z,100586.84
2018-06-18T00:11:06.880Z,100588.53
2018-06-18T00:13:58.011Z,100595.53
2018-06-18T00:16:26.740Z,100586.86
2018-06-18T00:18:55.069Z,100592.84
2018-06-18T00:21:23.338Z,100596.11
2018-06-18T00:23:51.644Z,100600.17
2018-06-18T00:26:19.946Z,100606.94
2018-06-18T00:28:48.242Z,100611.85
2018-06-18T00:31:16.757Z,100617.01
2018-06-18T00:33:54.552Z,100612.17
2018-06-18T00:36:22.852Z,100615.00
2018-06-18T00:38:59.326Z,100615.23
2018-06-18T00:41:27.730Z,100621.78
2018-06-18T00:43:56.129Z,100618.98
2018-06-18T00:46:24.432Z,100619.34
2018-06-18T00:48:53.962Z,100619.45
2018-06-18T00:51:22.676Z,100618.96
2018-06-18T00:53:51.516Z,100616.60
2018-06-18T00:56:19.838Z,100617.83
2018-06-18T00:58:48.218Z,100619.16
2018-06-18T01:01:16.531Z,100626.27
2018-06-18T01:06:51.213Z,100625.19
2018-06-18T01:09:19.527Z,100631.66
2018-06-18T01:11:47.824Z,100635.01
2018-06-18T01:14:22.146Z,100632.98
2018-06-18T01:16:50.436Z,100636.73
2018-06-18T01:19:18.720Z,100631.54
2018-06-18T01:21:49.684Z,100631.80
2018-06-18T01:24:57.456Z,100627.11
2018-06-18T01:27:25.874Z,100631.02
2018-06-18T01:29:54.768Z,100634.09
2018-06-18T01:32:23.159Z,100644.17
2018-06-18T01:34:51.498Z,100648.33
2018-06-18T01:37:19.782Z,100645.22
2018-06-18T01:39:48.085Z,100647.98
2018-06-18T01:42:16.394Z,100638.08
2018-06-18T01:44:44.857Z,100643.30
2018-06-18T01:47:14.022Z,100638.35
2018-06-18T01:49:42.374Z,100641.66
2018-06-18T01:52:10.654Z,100640.84
2018-06-18T01:54:39.035Z,100638.34
2018-06-18T01:57:07.352Z,100644.22
2018-06-18T01:59:35.642Z,100647.83
2018-06-18T02:02:04.230Z,100652.47
2018-06-18T02:04:32.764Z,100648.23
2018-06-18T02:07:01.114Z,100650.66
2018-06-18T02:09:29.466Z,100645.94
2018-06-18T02:11:58.234Z,100646.87
2018-06-18T02:14:26.520Z,100648.53
2018-06-18T02:16:55.193Z,100652.47
2018-06-18T02:19:23.514Z,100658.55
2018-06-18T02:21:51.877Z,100657.63
2018-06-18T02:24:20.312Z,100657.33
2018-06-18T02:26:52.900Z,100666.53
2018-06-18T02:30:30.413Z,100667.78
2018-06-18T02:33:04.533Z,100675.57
2018-06-18T02:35:38.190Z,100677.23
2018-06-18T02:38:11.956Z,100681.23
2018-06-18T02:40:45.085Z,100691.27
2018-06-18T02:43:27.227Z,100684.69
2018-06-18T02:45:55.547Z,100686.12
2018-06-18T02:48:23.800Z,100673.24
2018-06-18T02:50:52.130Z,100670.59
2018-06-18T02:56:14.149Z,100667.62
2018-06-18T02:58:42.436Z,100669.48
2018-06-18T03:01:11.255Z,100674.11
2018-06-18T03:09:39.044Z,100682.20
2018-06-18T03:12:07.656Z,100685.72
2018-06-18T03:14:41.094Z,100688.02
2018-06-18T03:17:09.485Z,100697.03
2018-06-18T03:19:43.184Z,100703.81
2018-06-18T03:22:16.908Z,100714.18
2018-06-18T03:33:32.255Z,100709.58
2018-06-18T03:36:00.578Z,100702.58
2018-06-18T03:38:28.876Z,100705.73
2018-06-18T03:40:57.186Z,100699.33
2018-06-18T03:43:25.792Z,100704.86
2018-06-18T03:45:54.241Z,100712.02
2018-06-18T03:48:22.878Z,100708.59
2018-06-18T03:50:51.266Z,100706.23
2018-06-18T03:53:33.418Z,100704.28
2018-06-18T03:56:02.017Z,100696.83
2018-06-18T03:58:30.498Z,100699.73
2018-06-18T04:02:15.750Z,100703.52
2018-06-18T04:10:48.576Z,100695.13
2018-06-18T04:13:26.386Z,100704.95
2018-06-18T04:15:54.633Z,100708.98
2018-06-18T04:18:22.209Z,100705.48
2018-06-18T04:20:51.226Z,100710.61
2018-06-18T04:23:19.760Z,100708.41
2018-06-18T04:25:48.366Z,100718.84
2018-06-18T04:28:16.767Z,100719.86
2018-06-18T04:30:46.069Z,100716.22
2018-06-18T04:33:22.318Z,100720.41
2018-06-18T04:35:51.304Z,100723.19
2018-06-18T04:38:19.580Z,100716.59
2018-06-18T04:40:48.673Z,100719.68
2018-06-18T04:43:41.105Z,100728.45
2018-06-18T04:46:25.394Z,100732.42
2018-06-18T04:48:59.134Z,100736.61
2018-06-18T04:51:27.897Z,100735.55
2018-06-18T04:54:01.741Z,100732.14
2018-06-18T04:56:30.988Z,100728.34
2018-06-18T04:58:59.786Z,100734.83
2018-06-18T05:01:30.384Z,100738.80
2018-06-18T05:03:59.191Z,100734.40
2018-06-18T05:06:29.461Z,100734.92
2018-06-18T05:10:05.340Z,100738.35
2018-06-18T05:12:34.656Z,100732.97
2018-06-18T05:15:03.883Z,100732.45
2018-06-18T05:17:32.555Z,100729.80
2018-06-18T05:20:01.255Z,100736.48
2018-06-18T05:22:29.790Z,100731.47
2018-06-18T05:24:58.462Z,100740.09
2018-06-18T05:27:31.738Z,100746.61
2018-06-18T05:30:18.961Z,100747.90
2018-06-18T05:32:47.310Z,100744.88
2018-06-18T05:35:15.938Z,100745.36
2018-06-18T05:37:52.640Z,100748.30
2018-06-18T05:40:22.985Z,100758.17
2018-06-18T05:42:52.758Z,100753.11
2018-06-18T05:45:39.920Z,100756.53
2018-06-18T05:48:09.550Z,100756.44
2018-06-18T05:50:38.547Z,100756.53
2018-06-18T05:53:07.765Z,100763.11
2018-06-18T05:55:36.404Z,100763.73
2018-06-18T05:58:04.989Z,100765.91
2018-06-18T06:00:33.443Z,100769.41
2018-06-18T06:03:01.832Z,100770.52
2018-06-18T06:05:30.346Z,100765.83
2018-06-18T06:07:58.789Z,100765.59
2018-06-18T06:10:27.626Z,100764.24
2018-06-18T06:12:56.318Z,100762.03
2018-06-18T06:15:28.518Z,100761.02
2018-06-18T06:17:57.140Z,100763.44
2018-06-18T06:20:25.587Z,100764.78
2018-06-18T06:23:03.118Z,100771.53
2018-06-18T06:25:32.970Z,100782.73
2018-06-18T06:28:01.442Z,100784.73
2018-06-18T06:30:29.832Z,100788.69
2018-06-18T06:32:58.364Z,100792.73
2018-06-18T06:35:30.505Z,100796.53
2018-06-18T06:37:59.020Z,100784.66
2018-06-18T06:40:27.537Z,100791.33
2018-06-18T06:42:56.088Z,100791.17
2018-06-18T06:45:24.666Z,100797.03
2018-06-18T06:47:53.137Z,100802.80
2018-06-18T06:50:21.565Z,100800.88
2018-06-18T06:52:50.028Z,100808.13
2018-06-18T06:55:18.642Z,100810.42
2018-06-18T06:57:47.054Z,100812.57
2018-06-18T07:00:15.582Z,100814.61
2018-06-18T07:02:45.583Z,100819.18
2018-06-18T07:05:14.466Z,100829.45
2018-06-18T07:07:43.058Z,100830.11
2018-06-18T07:10:11.549Z,100835.50
2018-06-18T07:12:41.400Z,100823.64
2018-06-18T07:15:10.074Z,100815.00
2018-06-18T07:17:39.764Z,100814.70
2018-06-18T07:20:08.420Z,100811.23
2018-06-18T07:22:37.225Z,100810.67
2018-06-18T07:25:05.712Z,100817.77
2018-06-18T07:27:34.190Z,100827.59
2018-06-18T07:30:02.597Z,100823.97
2018-06-18T07:32:31.072Z,100820.38
2018-06-18T07:34:59.594Z,100820.87
2018-06-18T07:37:28.358Z,100811.61
2018-06-18T07:39:57.054Z,100811.69
2018-06-18T07:42:25.767Z,100820.24
2018-06-18T07:44:54.367Z,100828.44
2018-06-18T07:47:23.427Z,100837.09
2018-06-18T07:49:52.308Z,100839.39
2018-06-18T07:52:22.288Z,100850.23
2018-06-18T07:54:50.886Z,100846.28
2018-06-18T07:57:19.369Z,100843.91
2018-06-18T07:59:47.817Z,100838.61
2018-06-18T08:02:16.339Z,100838.45
2018-06-18T08:04:44.790Z,100849.54
2018-06-18T08:07:13.352Z,100851.34
2018-06-18T08:09:42.119Z,100854.52
2018-06-18T08:12:10.574Z,100859.19
2018-06-18T08:14:39.270Z,100858.64
2018-06-18T08:17:07.803Z,100859.00
2018-06-18T08:19:36.265Z,100863.61
2018-06-18T08:22:04.771Z,100867.73
2018-06-18T08:24:35.892Z,100862.12
2018-06-18T08:27:07.135Z,100866.38
2018-06-18T08:29:35.576Z,100869.31
2018-06-18T08:32:04.154Z,100864.26
2018-06-18T08:34:37.717Z,100870.50
2018-06-18T08:37:06.536Z,100869.62
2018-06-18T08:39:34.974Z,100874.06
2018-06-18T08:42:03.500Z,100868.52
2018-06-18T08:44:32.059Z,100863.30
2018-06-18T08:47:01.012Z,100863.05
2018-06-18T08:49:29.494Z,100854.44
2018-06-18T08:52:03.339Z,100858.55
2018-06-18T08:54:37.110Z,100859.50
2018-06-18T08:57:11.091Z,100871.45
2018-06-18T08:59:44.796Z,100864.96
2018-06-18T09:02:13.332Z,100859.34
2018-06-18T09:04:49.374Z,100860.22
2018-06-18T09:07:21.902Z,100856.53
2018-06-18T09:09:50.358Z,100860.81
2018-06-18T09:12:18.929Z,100856.48
2018-06-18T09:14:47.456Z,100848.55
2018-06-18T09:17:15.918Z,100846.97
2018-06-18T09:19:44.586Z,100851.98
2018-06-18T09:22:13.247Z,100855.22
2018-06-18T09:24:42.072Z,100857.28
2018-06-18T09:27:12.568Z,100850.78
2018-06-18T09:30:11.792Z,100852.32
2018-06-18T09:32:40.880Z,100845.38
2018-06-18T09:35:09.258Z,100848.19
2018-06-18T09:37:38.152Z,100847.89
2018-06-18T09:40:06.725Z,100843.94
2018-06-18T09:42:35.262Z,100842.83
2018-06-18T09:45:04.171Z,100839.28
2018-06-18T09:47:32.804Z,100835.67
2018-06-18T09:51:04.247Z,100841.10
2018-06-18T09:53:37.920Z,100825.12
2018-06-18T09:56:11.760Z,100822.79
2018-06-18T09:58:45.482Z,100821.56
2018-06-18T10:01:22.124Z,100818.08
2018-06-18T10:03:51.314Z,100826.98
2018-06-18T10:06:20.690Z,100822.87
2018-06-18T10:08:49.368Z,100821.77
2018-06-18T10:11:18.095Z,100815.02
2018-06-18T10:13:46.638Z,100820.77
2018-06-18T10:16:15.108Z,100820.11
2018-06-18T10:18:43.751Z,100815.23
2018-06-18T10:21:12.320Z,100811.78
2018-06-18T10:23:41.790Z,100808.83
2018-06-18T10:26:10.248Z,100803.77
2018-06-18T10:28:39.356Z,100805.80
2018-06-18T10:31:07.993Z,100796.88
2018-06-18T10:33:41.797Z,100794.19
2018-06-18T10:36:15.296Z,100793.84
2018-06-18T10:38:49.014Z,100797.44
2018-06-18T10:41:23.149Z,100811.55
2018-06-18T10:43:51.697Z,100799.02
2018-06-18T10:46:20.156Z,100802.05
2018-06-18T10:48:48.723Z,100801.35
2018-06-18T10:51:17.310Z,100798.78
2018-06-18T10:53:45.686Z,100803.20
2018-06-18T10:56:14.126Z,100802.30
2018-06-18T10:58:42.897Z,100802.87
2018-06-18T11:01:13.733Z,100799.59
2018-06-18T11:03:42.140Z,100794.62
2018-06-18T11:06:16.233Z,100786.96
2018-06-18T11:08:44.941Z,100790.70
2018-06-18T11:11:13.595Z,100792.14
2018-06-18T11:13:42.131Z,100791.91
2018-06-18T11:16:10.848Z,100788.66
2018-06-18T11:18:44.724Z,100790.67
2018-06-18T11:21:18.378Z,100780.08
2018-06-18T11:23:51.994Z,100778.84
2018-06-18T11:26:25.714Z,100777.91
2018-06-18T11:28:54.181Z,100774.88
2018-06-18T11:31:22.809Z,100770.79
2018-06-18T11:33:51.443Z,100779.38
2018-06-18T11:36:19.911Z,100768.42
2018-06-18T11:38:48.529Z,100780.63
2018-06-18T11:41:17.206Z,100776.64
2018-06-18T11:43:45.676Z,100772.14
2018-06-18T11:46:14.146Z,100769.59
2018-06-18T11:48:42.657Z,100766.56
2018-06-18T11:51:11.211Z,100770.77
2018-06-18T11:53:39.670Z,100760.43
2018-06-18T11:59:17.335Z,100763.35
2018-06-18T12:01:51.280Z,100755.87
2018-06-18T12:04:25.433Z,100772.05
2018-06-18T12:06:59.296Z,100770.39
2018-06-18T12:09:32.619Z,100773.97
2018-06-18T12:12:01.142Z,100774.77
2018-06-18T12:14:30.111Z,100770.55
2018-06-18T12:16:58.572Z,100758.65
2018-06-18T12:19:27.195Z,100752.20
2018-06-18T12:21:55.621Z,100747.91
2018-06-18T12:24:29.865Z,100750.89
2018-06-18T12:26:59.091Z,100757.35
2018-06-18T12:29:27.617Z,100756.01
2018-06-18T12:31:56.210Z,100753.75
2018-06-18T12:34:29.940Z,100752.27
2018-06-18T12:36:58.382Z,100753.84
2018-06-18T12:39:27.362Z,100747.30
2018-06-18T12:42:00.642Z,100740.73
2018-06-18T12:44:34.061Z,100741.02
2018-06-18T12:48:05.444Z,100743.05
2018-06-18T12:50:39.262Z,100741.09
2018-06-18T12:53:12.989Z,100738.42
2018-06-18T12:55:46.672Z,100738.20
2018-06-18T12:58:15.832Z,100730.32
2018-06-18T13:00:46.144Z,100731.94
2018-06-18T13:03:16.618Z,100726.65
2018-06-18T13:05:46.136Z,100735.48
2018-06-18T13:08:15.972Z,100728.39
2018-06-18T13:10:45.845Z,100723.88
2018-06-18T13:13:14.254Z,100724.45
2018-06-18T13:15:44.247Z,100720.64
2018-06-18T13:18:13.424Z,100723.86
2018-06-18T13:20:44.398Z,100724.47
2018-06-18T13:23:12.932Z,100720.28
2018-06-18T13:25:41.671Z,100722.47
2018-06-18T13:28:15.265Z,100725.80
2018-06-18T13:30:43.702Z,100721.33
2018-06-18T13:33:12.332Z,100714.52
2018-06-18T13:35:40.954Z,100712.47
2018-06-18T13:38:14.848Z,100712.48
2018-06-18T13:40:48.734Z,100714.69
2018-06-18T13:43:22.595Z,100722.39
2018-06-18T13:46:58.068Z,100719.67
2018-06-18T13:49:31.846Z,100716.93
2018-06-18T13:52:00.627Z,100714.94
2018-06-18T13:54:29.194Z,100707.59
2018-06-18T13:56:57.666Z,100703.67
2018-06-18T13:59:26.193Z,100715.45
2018-06-18T14:01:54.645Z,100702.33
2018-06-18T14:04:23.040Z,100703.42
2018-06-18T14:06:51.534Z,100699.71
2018-06-18T14:09:20.120Z,100701.74
2018-06-18T14:11:48.576Z,100695.68
2018-06-18T14:14:17.335Z,100703.61
2018-06-18T14:16:45.898Z,100701.37
2018-06-18T14:19:19.774Z,100702.17
2018-06-18T14:21:48.289Z,100699.53
2018-06-18T14:24:16.758Z,100695.31
2018-06-18T14:26:45.348Z,100697.08
2018-06-18T14:29:19.086Z,100709.67
2018-06-18T14:31:52.808Z,100700.38
2018-06-18T14:34:26.485Z,100710.27
2018-06-18T14:37:00.306Z,100714.63
2018-06-18T14:39:34.666Z,100709.16
2018-06-18T14:42:03.813Z,100710.05
2018-06-18T14:44:33.616Z,100714.63
2018-06-18T14:47:02.058Z,100712.49
2018-06-18T14:49:30.572Z,100709.77
2018-06-18T14:51:59.236Z,100709.62
2018-06-18T14:54:28.040Z,100710.48
2018-06-18T14:57:00.249Z,100709.84
2018-06-18T14:59:39.207Z,100709.56
2018-06-18T15:02:09.244Z,100708.42
2018-06-18T15:04:43.122Z,100704.53
2018-06-18T15:07:11.891Z,100704.75
2018-06-18T15:09:41.010Z,100702.58
2018-06-18T15:12:10.718Z,100712.09
2018-06-18T15:14:39.366Z,100708.61
2018-06-18T15:17:07.957Z,100701.91
2018-06-18T15:19:36.907Z,100703.19
2018-06-18T15:22:08.297Z,100699.54
2018-06-18T15:24:48.835Z,100702.25
2018-06-18T15:27:18.204Z,100688.05
2018-06-18T15:29:47.133Z,100689.61
2018-06-18T15:32:16.685Z,100694.96
2018-06-18T15:34:45.728Z,100690.70
2018-06-18T15:37:14.301Z,100694.94
2018-06-18T15:39:43.042Z,100695.20
2018-06-18T15:42:11.657Z,100697.50
2018-06-18T15:44:40.874Z,100698.64
2018-06-18T15:47:09.277Z,100699.49
2018-06-18T15:49:37.681Z,100696.34
2018-06-18T15:52:06.181Z,100694.47
2018-06-18T15:57:27.845Z,100704.56
2018-06-18T15:59:56.616Z,100700.22
2018-06-18T16:02:25.364Z,100696.70
2018-06-18T16:04:53.741Z,100692.12
2018-06-18T16:07:22.169Z,100685.55
2018-06-18T16:09:50.743Z,100688.12
2018-06-18T16:12:19.271Z,100687.05
2018-06-18T16:14:47.849Z,100684.04
2018-06-18T16:17:16.737Z,100691.30
2018-06-18T16:19:45.645Z,100689.53
2018-06-18T16:22:14.245Z,100691.39
2018-06-18T16:24:43.200Z,100691.03
2018-06-18T16:27:11.844Z,100692.67
2018-06-18T16:29:41.205Z,100687.34
2018-06-18T16:32:09.936Z,100682.68
2018-06-18T16:34:38.591Z,100688.11
2018-06-18T16:37:07.126Z,100689.83
2018-06-18T16:39:35.675Z,100691.73
2018-06-18T16:42:06.217Z,100686.53
2018-06-18T16:44:35.189Z,100692.77
2018-06-18T16:47:04.035Z,100693.76
2018-06-18T16:49:33.271Z,100693.81
2018-06-18T16:52:02.504Z,100694.61
2018-06-18T16:54:31.200Z,100689.41
2018-06-18T16:57:00.171Z,100690.32
2018-06-18T16:59:32.959Z,100691.59
2018-06-18T17:02:02.134Z,100683.25
2018-06-18T17:04:30.980Z,100690.59
2018-06-18T17:07:00.041Z,100688.60
2018-06-18T17:09:28.525Z,100680.60
2018-06-18T17:11:57.403Z,100678.44
2018-06-18T17:14:25.991Z,100681.02
2018-06-18T17:16:54.639Z,100682.11
2018-06-18T17:19:23.857Z,100678.26
2018-06-18T17:21:52.563Z,100672.81
2018-06-18T17:24:21.070Z,100677.75
2018-06-18T17:26:49.583Z,100682.01
2018-06-18T17:29:20.799Z,100675.78
2018-06-18T17:31:50.536Z,100674.42
2018-06-18T17:34:19.196Z,100669.22
2018-06-18T17:36:48.039Z,100679.66
2018-06-18T17:39:16.743Z,100671.58
2018-06-18T17:41:45.634Z,100675.23
2018-06-18T17:44:14.297Z,100673.06
2018-06-18T17:46:43.417Z,100677.00
2018-06-18T17:49:12.131Z,100671.85
2018-06-18T17:51:41.197Z,100671.85
2018-06-18T17:54:09.931Z,100672.94
2018-06-18T17:56:38.816Z,100673.16
2018-06-18T17:59:07.323Z,100670.63
2018-06-18T18:01:36.005Z,100672.57
2018-06-18T18:04:04.938Z,100666.70
2018-06-18T18:06:34.082Z,100667.34
2018-06-18T18:09:02.944Z,100665.81
2018-06-18T18:11:32.085Z,100663.02
2018-06-18T18:14:10.004Z,100665.86
2018-06-18T18:16:39.265Z,100661.08
2018-06-18T18:19:07.883Z,100666.64
2018-06-18T18:21:36.438Z,100664.00
2018-06-18T18:24:05.320Z,100662.34
2018-06-18T18:26:33.949Z,100670.47
2018-06-18T18:29:02.989Z,100668.89
2018-06-18T18:31:32.081Z,100665.55
2018-06-18T18:34:01.416Z,100669.97
2018-06-18T18:36:30.233Z,100669.30
2018-06-18T18:38:59.421Z,100667.81
2018-06-18T18:41:28.492Z,100665.59
2018-06-18T18:43:57.781Z,100673.22
2018-06-18T18:46:26.436Z,100674.22
2018-06-18T18:48:55.199Z,100671.95
2018-06-18T18:51:24.671Z,100680.13
2018-06-18T18:53:53.216Z,100685.23
2018-06-18T18:56:33.157Z,100676.69
2018-06-18T18:59:37.094Z,100676.95
2018-06-18T19:02:08.182Z,100689.83
2018-06-18T19:04:53.601Z,100683.45
2018-06-18T19:07:41.545Z,100688.22
2018-06-18T19:10:21.638Z,100691.84
2018-06-18T19:12:51.206Z,100692.55
2018-06-18T19:15:25.159Z,100695.61
2018-06-18T19:17:54.037Z,100696.87
2018-06-18T19:20:35.027Z,100699.58
2018-06-18T19:23:04.015Z,100701.80
2018-06-18T19:25:46.258Z,100710.19
2018-06-18T19:28:14.959Z,100710.19
2018-06-18T19:30:46.563Z,100712.22
2018-06-18T19:33:19.311Z,100713.61
2018-06-18T19:35:47.785Z,100721.41
2018-06-18T19:38:16.410Z,100722.69
2018-06-18T19:40:45.131Z,100720.88
2018-06-18T19:43:13.739Z,100727.43
2018-06-18T19:45:51.255Z,100727.43
2018-06-18T19:48:28.016Z,100732.09
2018-06-18T19:50:57.581Z,100733.47
2018-06-18T19:53:26.453Z,100727.05
2018-06-18T19:55:56.510Z,100734.75
2018-06-18T19:58:25.657Z,100742.42
2018-06-18T20:00:57.278Z,100739.06
2018-06-18T20:03:30.492Z,100745.27
2018-06-18T20:05:59.149Z,100746.09
2018-06-18T20:08:30.839Z,100746.75
2018-06-18T20:10:59.719Z,100747.55
2018-06-18T20:13:28.345Z,100755.97
2018-06-18T20:15:57.945Z,100752.03
2018-06-18T20:18:27.377Z,100750.62
2018-06-18T20:20:56.753Z,100757.39
2018-06-18T20:23:28.669Z,100757.41
2018-06-18T20:26:02.079Z,100761.36
2018-06-18T20:28:30.587Z,100763.95
2018-06-18T20:30:59.875Z,100767.12
2018-06-18T20:33:29.425Z,100756.07
2018-06-18T20:36:08.729Z,100761.59
2018-06-18T20:38:37.419Z,100771.84
2018-06-18T20:41:06.697Z,100777.38
2018-06-18T20:43:46.260Z,100779.53
2018-06-18T20:46:16.081Z,100779.08
2018-06-18T20:48:45.671Z,100780.66
2018-06-18T20:51:14.374Z,100782.70
2018-06-18T20:53:43.243Z,100778.21
2018-06-18T20:56:12.056Z,100783.15
2018-06-18T20:58:41.271Z,100784.61
2018-06-18T21:01:12.366Z,100786.97
2018-06-18T21:03:47.135Z,100787.31
2018-06-18T21:06:15.855Z,100790.02
2018-06-18T21:08:44.529Z,100794.41
2018-06-18T21:11:13.255Z,100789.01
2018-06-18T21:13:42.138Z,100798.47
2018-06-18T21:16:11.695Z,100789.34
2018-06-18T21:18:40.039Z,100793.84
2018-06-18T21:21:08.573Z,100792.71
2018-06-18T21:23:39.587Z,100789.85
2018-06-18T21:26:09.071Z,100785.59
2018-06-18T21:28:37.594Z,100788.30
2018-06-18T21:31:06.356Z,100798.29
2018-06-18T21:33:35.099Z,100792.79
2018-06-18T21:36:03.725Z,100797.05
2018-06-18T21:38:32.919Z,100793.76
2018-06-18T21:41:01.865Z,100791.59
2018-06-18T21:43:30.675Z,100791.34
2018-06-18T21:45:59.640Z,100797.72
2018-06-18T21:48:28.896Z,100796.03
2018-06-18T21:50:58.354Z,100801.20
2018-06-18T21:53:27.387Z,100800.33
2018-06-18T21:55:56.285Z,100794.34
2018-06-18T21:58:24.775Z,100795.80
2018-06-18T22:00:53.959Z,100799.69
2018-06-18T22:03:22.509Z,100800.70
2018-06-18T22:05:56.232Z,100796.41
2018-06-18T22:08:26.239Z,100795.73
2018-06-18T22:10:55.060Z,100792.30
2018-06-18T22:13:23.629Z,100790.14
2018-06-18T22:15:52.333Z,100794.93
2018-06-18T22:18:21.066Z,100791.95
2018-06-18T22:20:49.774Z,100788.02
2018-06-18T22:23:18.216Z,100790.17
2018-06-18T22:28:53.097Z,100799.64
2018-06-18T22:31:22.184Z,100788.53
2018-06-18T22:33:51.424Z,100790.97
2018-06-18T22:36:19.907Z,100791.22
2018-06-18T22:38:48.632Z,100791.08
2018-06-18T22:41:17.786Z,100788.23
2018-06-18T22:43:46.860Z,100785.25
2018-06-18T22:46:15.468Z,100782.30
2018-06-18T22:48:43.995Z,100786.87
2018-06-18T22:51:12.831Z,100787.05
2018-06-18T22:59:35.960Z,100782.37
2018-06-18T23:02:04.496Z,100781.08
2018-06-18T23:04:32.912Z,100778.92
2018-06-18T23:07:01.327Z,100779.73
2018-06-18T23:09:29.803Z,100772.61
2018-06-18T23:11:58.223Z,100777.76
2018-06-18T23:14:40.410Z,100771.55
2018-06-18T23:17:08.768Z,100776.32
2018-06-18T23:19:37.262Z,100780.36
2018-06-18T23:22:07.030Z,100775.97
2018-06-18T23:24:37.054Z,100778.57
2018-06-18T23:27:06.491Z,100781.89
2018-06-18T23:29:35.002Z,100774.14
2018-06-18T23:32:03.313Z,100775.30
2018-06-18T23:34:31.984Z,100779.77
2018-06-18T23:37:00.323Z,100775.63
2018-06-18T23:39:28.683Z,100777.61
2018-06-18T23:41:58.024Z,100777.34
2018-06-18T23:44:45.183Z,100777.62
2018-06-18T23:47:13.521Z,100776.17
2018-06-18T23:49:41.847Z,100778.38
2018-06-18T23:52:10.187Z,100780.36
2018-06-18T23:54:38.560Z,100781.75
2018-06-18T23:57:06.914Z,100780.81
2018-06-18T23:59:35.199Z,100784.36
